Time;durP1;ratioP1;P1;durP2;ratioP2;P2;SDS_P1;SDS_P2;PMS_P1;PMS_P2;Temp;Humidity;BMP_temperature;BMP_pressure;BME280_temperature;BME280_humidity;BME280_pressure;Samples;Min_cycle;Max_cycle;Signal;HPM_P1;HPM_P2
2023/07/05 00:01:33;;;;;;;;;21.00;19.00;;;;;22.53;45.68;100830.36;110178;1264;18746;-40
2023/07/05 00:04:01;;;;;;;;;28.00;28.00;;;;;22.48;45.85;100833.05;110202;1257;20630;-40
2023/07/05 00:06:29;;;;;;;;;21.00;19.00;;;;;22.46;45.91;100833.78;110208;1250;20002;-40
2023/07/05 00:08:56;;;;;;;;;19.00;19.00;;;;;22.38;45.78;100832.06;110307;1256;20020;-40
2023/07/05 00:11:23;;;;;;;;;21.00;18.00;;;;;22.27;46.10;100833.52;110274;1256;21034;-39
2023/07/05 00:13:51;;;;;;;;;19.00;17.50;;;;;22.23;46.02;100826.73;110228;1248;19976;-39
2023/07/05 00:16:18;;;;;;;;;21.50;18.50;;;;;22.19;46.21;100824.86;110166;1264;19421;-40
2023/07/05 00:18:46;;;;;;;;;19.00;17.00;;;;;22.13;46.22;100825.95;110201;1256;20867;-39
2023/07/05 00:21:13;;;;;;;;;18.00;16.50;;;;;22.10;46.21;100829.15;110165;1264;22870;-39
2023/07/05 00:23:41;;;;;;;;;15.00;14.00;;;;;22.06;46.11;100824.95;110200;1249;22079;-40
2023/07/05 00:26:09;;;;;;;;;19.00;17.00;;;;;22.09;46.24;100824.52;110225;1264;19307;-40
2023/07/05 00:28:36;;;;;;;;;17.00;15.00;;;;;22.07;46.13;100830.98;110279;1256;20651;-39
2023/07/05 00:31:03;;;;;;;;;16.33;14.33;;;;;22.12;46.42;100834.98;110227;1264;22192;-39
2023/07/05 00:33:31;;;;;;;;;16.00;13.00;;;;;22.03;46.32;100823.80;110203;1250;21327;-39
2023/07/05 00:35:59;;;;;;;;;14.00;14.00;;;;;22.00;46.51;100829.45;110214;1249;23262;-39
2023/07/05 00:38:26;;;;;;;;;18.00;17.00;;;;;22.06;46.21;100830.95;110209;1264;19048;-39
2023/07/05 00:40:53;;;;;;;;;18.00;16.00;;;;;21.85;46.54;100828.85;110189;1264;20694;-39
2023/07/05 00:43:21;;;;;;;;;17.50;15.00;;;;;21.76;46.75;100827.95;110183;1249;20036;-39
2023/07/05 00:45:48;;;;;;;;;17.00;14.00;;;;;21.70;46.80;100833.77;110197;1250;20248;-39
2023/07/05 00:48:16;;;;;;;;;16.00;16.00;;;;;21.62;46.99;100831.60;110217;1250;21112;-39
2023/07/05 00:50:43;;;;;;;;;17.00;17.00;;;;;21.62;47.28;100828.70;110204;1265;18550;-39
2023/07/05 00:53:10;;;;;;;;;17.00;15.00;;;;;21.77;46.81;100824.80;110205;1250;20133;-39
2023/07/05 00:55:38;;;;;;;;;15.00;14.00;;;;;21.84;46.74;100816.98;110208;1264;19374;-39
2023/07/05 00:58:05;;;;;;;;;17.50;14.50;;;;;22.00;46.66;100811.98;110177;1257;19883;-39
2023/07/05 01:00:33;;;;;;;;;15.50;14.00;;;;;22.06;46.40;100815.11;110190;1264;18664;-40
2023/07/05 01:03:00;;;;;;;;;19.00;16.00;;;;;21.93;46.69;100816.06;110217;1264;21042;-40
2023/07/05 01:05:27;;;;;;;;;19.00;18.00;;;;;21.84;46.95;100813.71;110188;1250;20044;-39
2023/07/05 01:07:55;;;;;;;;;15.50;15.00;;;;;21.73;47.07;100817.04;110229;1256;20241;-39
2023/07/05 01:10:22;;;;;;;;;18.00;17.00;;;;;21.67;46.97;100816.83;110178;1250;22591;-39
2023/07/05 01:12:50;;;;;;;;;14.50;12.00;;;;;21.60;47.20;100822.75;110189;1256;19914;-39
2023/07/05 01:15:17;;;;;;;;;16.50;14.00;;;;;21.52;47.38;100820.76;110203;1250;21902;-40
2023/07/05 01:17:45;;;;;;;;;17.00;15.00;;;;;21.50;47.67;100822.13;110200;1265;19322;-39
2023/07/05 01:20:12;;;;;;;;;12.00;12.00;;;;;21.53;47.73;100822.83;110202;1256;21512;-40
2023/07/05 01:22:39;;;;;;;;;15.00;15.00;;;;;21.58;47.58;100823.92;110172;1249;22758;-39
2023/07/05 01:25:07;;;;;;;;;18.00;15.00;;;;;21.60;47.61;100823.98;110209;1250;20639;-39
2023/07/05 01:27:34;;;;;;;;;19.50;17.00;;;;;21.56;47.89;100821.24;110246;1256;19972;-40
2023/07/05 01:30:02;;;;;;;;;24.67;20.67;;;;;21.43;48.25;100823.11;110258;1257;19976;-37
2023/07/05 01:32:30;;;;;;;;;20.00;20.00;;;;;21.40;48.24;100822.21;110149;1264;19835;-37
2023/07/05 01:34:57;;;;;;;;;15.50;15.50;;;;;21.26;48.67;100822.48;110244;1249;21312;-38
2023/07/05 01:37:25;;;;;;;;;21.00;20.00;;;;;21.16;49.32;100820.23;110221;1249;20256;-37
2023/07/05 01:39:52;;;;;;;;;24.00;20.00;;;;;21.15;49.72;100820.00;110170;1264;19327;-38
2023/07/05 01:42:19;;;;;;;;;21.00;19.00;;;;;21.18;50.12;100823.39;110160;1256;22759;-39
2023/07/05 01:44:47;;;;;;;;;23.00;23.00;;;;;21.17;50.36;100827.05;110179;1249;20146;-38
2023/07/05 01:47:14;;;;;;;;;23.00;20.00;;;;;21.21;50.60;100830.55;110232;1257;21397;-38
2023/07/05 01:49:42;;;;;;;;;21.67;20.00;;;;;21.26;50.89;100831.57;110077;1264;20034;-39
2023/07/05 01:52:09;;;;;;;;;27.00;23.00;;;;;21.25;50.92;100832.30;110177;1250;20009;-39
2023/07/05 01:54:37;;;;;;;;;20.00;20.00;;;;;21.40;50.60;100823.28;110251;1250;20787;-38
2023/07/05 01:57:05;;;;;;;;;21.00;20.50;;;;;21.53;50.11;100817.17;110268;1250;23419;-38
2023/07/05 01:59:32;;;;;;;;;23.50;22.00;;;;;21.58;49.88;100810.80;110194;1257;20166;-39
2023/07/05 02:02:00;;;;;;;;;20.00;18.00;;;;;21.48;50.13;100809.18;110194;1250;20739;-40
2023/07/05 02:04:27;;;;;;;;;24.00;20.00;;;;;21.40;50.35;100810.98;110207;1249;23008;-38
2023/07/05 02:06:55;;;;;;;;;24.00;17.00;;;;;21.38;50.47;100813.20;110204;1264;18757;-38
2023/07/05 02:09:22;;;;;;;;;20.00;20.00;;;;;21.31;50.16;100811.02;110264;1250;22019;-39
2023/07/05 02:11:50;;;;;;;;;18.00;17.50;;;;;21.23;50.11;100818.17;110266;1257;19920;-39
2023/07/05 02:14:17;;;;;;;;;18.00;17.00;;;;;21.15;49.53;100820.01;110268;1250;22091;-38
2023/07/05 02:16:44;;;;;;;;;21.00;20.00;;;;;21.10;49.64;100822.59;110283;1251;20773;-39
2023/07/05 02:19:12;;;;;;;;;18.00;17.00;;;;;20.97;49.74;100820.92;110260;1250;22540;-38
2023/07/05 02:21:39;;;;;;;;;22.00;20.00;;;;;20.73;50.74;100822.67;110273;1257;19939;-38
2023/07/05 02:24:07;;;;;;;;;23.00;21.00;;;;;20.67;51.06;100824.84;110212;1265;21884;-39
2023/07/05 02:26:34;;;;;;;;;21.00;19.00;;;;;20.62;51.43;100824.61;110190;1250;20014;-39
2023/07/05 02:29:02;;;;;;;;;21.00;20.00;;;;;20.61;51.84;100825.54;110204;1250;20329;-39
2023/07/05 02:31:29;;;;;;;;;26.00;24.00;;;;;20.51;52.29;100826.00;110211;1265;19532;-39
2023/07/05 02:33:57;;;;;;;;;24.67;24.00;;;;;20.55;52.08;100822.89;110200;1250;20033;-40
2023/07/05 02:36:24;;;;;;;;;24.00;23.00;;;;;20.44;52.53;100820.80;110197;1250;20183;-39
2023/07/05 02:38:52;;;;;;;;;27.00;24.00;;;;;20.51;52.82;100824.23;110167;1264;19210;-39
2023/07/05 02:41:19;;;;;;;;;21.00;21.00;;;;;20.63;52.60;100826.11;110166;1265;20078;-39
2023/07/05 02:43:46;;;;;;;;;26.50;22.00;;;;;20.65;52.43;100821.44;110195;1264;18696;-39
2023/07/05 02:46:14;;;;;;;;;26.50;26.00;;;;;20.59;52.57;100826.85;110212;1265;22474;-39
2023/07/05 02:48:41;;;;;;;;;26.50;22.50;;;;;20.59;52.43;100821.05;110207;1250;20041;-39
2023/07/05 02:51:09;;;;;;;;;23.67;21.33;;;;;20.52;52.73;100825.92;110231;1250;20095;-38
2023/07/05 02:53:36;;;;;;;;;27.00;24.00;;;;;20.53;52.80;100828.74;110206;1257;20737;-39
2023/07/05 02:56:03;;;;;;;;;33.50;32.00;;;;;20.49;52.77;100825.86;110191;1264;22217;-40
2023/07/05 02:58:31;;;;;;;;;40.00;33.00;;;;;20.48;52.53;100833.08;110225;1249;20132;-40
2023/07/05 03:00:58;;;;;;;;;36.00;30.33;;;;;20.42;52.64;100831.54;110191;1249;20839;-40
2023/07/05 03:03:26;;;;;;;;;32.00;32.00;;;;;20.39;52.59;100830.31;110120;1264;18666;-39
2023/07/05 03:05:54;;;;;;;;;29.67;26.67;;;;;20.38;52.64;100825.28;110155;1250;21539;-39
2023/07/05 03:08:21;;;;;;;;;30.00;27.33;;;;;20.47;52.17;100830.70;110195;1250;20841;-38
2023/07/05 03:10:48;;;;;;;;;26.00;26.00;;;;;20.50;51.84;100828.29;110239;1265;18954;-39
2023/07/05 03:13:16;;;;;;;;;30.00;28.50;;;;;20.51;51.67;100823.34;110261;1250;21972;-39
2023/07/05 03:15:44;;;;;;;;;29.50;26.50;;;;;20.41;51.94;100824.57;110238;1265;19357;-39
2023/07/05 03:18:11;;;;;;;;;29.50;28.00;;;;;20.41;51.77;100826.98;110179;1250;20031;-39
2023/07/05 03:20:39;;;;;;;;;26.00;26.00;;;;;20.25;52.25;100829.71;110218;1265;20124;-39
2023/07/05 03:23:06;;;;;;;;;30.00;29.00;;;;;20.21;52.48;100826.65;110231;1250;20688;-38
2023/07/05 03:25:33;;;;;;;;;30.00;29.00;;;;;20.28;52.37;100824.41;110203;1264;18595;-39
2023/07/05 03:28:02;;;;;;;;;32.00;27.33;;;;;20.27;52.60;100827.43;110236;1264;20467;-39
2023/07/05 03:30:29;;;;;;;;;29.67;29.33;;;;;20.26;52.58;100832.61;110200;1265;19337;-39
2023/07/05 03:32:57;;;;;;;;;26.00;25.00;;;;;20.28;52.75;100829.35;110213;1264;18652;-39
2023/07/05 03:35:24;;;;;;;;;28.00;26.00;;;;;20.29;52.50;100825.25;110213;1264;18994;-39
2023/07/05 03:37:51;;;;;;;;;35.00;30.00;;;;;20.25;52.73;100827.09;110210;1250;20719;-39
2023/07/05 03:40:19;;;;;;;;;27.00;24.50;;;;;20.14;52.81;100824.35;110200;1251;18601;-38
2023/07/05 03:42:46;;;;;;;;;31.50;27.00;;;;;20.16;53.00;100825.23;110289;1249;18749;-39
2023/07/05 03:45:14;;;;;;;;;28.00;25.00;;;;;20.29;52.90;100824.71;110230;1264;19415;-39
2023/07/05 03:47:41;;;;;;;;;29.50;25.00;;;;;20.35;52.92;100819.70;110198;1250;20011;-39
2023/07/05 03:50:08;;;;;;;;;30.00;27.00;;;;;20.42;52.73;100815.95;110233;1256;20008;-38
2023/07/05 03:52:36;;;;;;;;;28.33;26.67;;;;;20.36;52.74;100819.51;110270;1248;19278;-39
2023/07/05 03:55:03;;;;;;;;;30.00;28.00;;;;;20.30;52.90;100819.50;110210;1250;20017;-40
2023/07/05 03:57:31;;;;;;;;;26.50;25.50;;;;;20.31;52.94;100821.91;110155;1257;20050;-40
2023/07/05 03:59:58;;;;;;;;;27.00;26.00;;;;;20.34;52.97;100823.55;110203;1249;20884;-40
2023/07/05 04:02:25;;;;;;;;;24.67;24.00;;;;;20.36;53.15;100820.27;110190;1264;21565;-40
2023/07/05 04:04:53;;;;;;;;;32.00;29.00;;;;;20.25;53.30;100815.33;110205;1264;18687;-39
2023/07/05 04:07:20;;;;;;;;;26.00;24.33;;;;;20.22;53.35;100812.58;110183;1250;20856;-38
2023/07/05 04:09:48;;;;;;;;;29.50;27.00;;;;;20.23;53.37;100814.28;110237;1264;18562;-38
2023/07/05 04:12:15;;;;;;;;;27.00;26.00;;;;;20.26;53.57;100820.49;110244;1264;21434;-37
2023/07/05 04:14:42;;;;;;;;;24.00;23.00;;;;;20.28;53.55;100818.05;110277;1256;22033;-38
2023/07/05 04:17:10;;;;;;;;;22.00;22.00;;;;;20.39;53.44;100821.90;110221;1264;18613;-39
2023/07/05 04:19:37;;;;;;;;;24.00;24.00;;;;;20.42;53.47;100826.44;110180;1250;22132;-38
2023/07/05 04:22:05;;;;;;;;;29.50;27.50;;;;;20.26;54.00;100828.45;110195;1250;20767;-39
2023/07/05 04:24:32;;;;;;;;;24.00;23.00;;;;;20.28;54.08;100831.14;110272;1250;20100;-39
2023/07/05 04:26:59;;;;;;;;;29.50;24.00;;;;;20.35;53.89;100825.31;110255;1264;23520;-39
2023/07/05 04:29:27;;;;;;;;;29.00;27.00;;;;;20.38;54.16;100823.84;110207;1264;20705;-39
2023/07/05 04:31:54;;;;;;;;;30.00;27.00;;;;;20.29;54.37;100820.73;110213;1264;18634;-38
2023/07/05 04:34:22;;;;;;;;;28.00;25.00;;;;;19.98;55.51;100819.38;110268;1250;20177;-38
2023/07/05 04:36:49;;;;;;;;;35.00;28.00;;;;;19.96;55.82;100814.38;110223;1248;20926;-39
2023/07/05 04:39:17;;;;;;;;;20.00;19.00;;;;;20.05;55.38;100816.05;110189;1264;18577;-39
2023/07/05 04:41:44;;;;;;;;;25.00;20.00;;;;;20.57;54.40;100817.88;110208;1257;19950;-38
2023/07/05 04:44:12;;;;;;;;;19.00;17.00;;;;;20.99;53.64;100819.27;110171;1264;22363;-38
2023/07/05 04:46:39;;;;;;;;;21.50;17.00;;;;;21.27;53.07;100815.35;110189;1264;18590;-40
2023/07/05 04:49:06;;;;;;;;;17.00;15.67;;;;;21.46;52.39;100819.45;110208;1250;20102;-39
2023/07/05 04:51:34;;;;;;;;;26.00;21.00;;;;;21.59;51.86;100820.71;110191;1250;22051;-39
2023/07/05 04:54:01;;;;;;;;;16.33;15.00;;;;;21.68;51.45;100818.73;110067;1264;19988;-39
2023/07/05 04:56:29;;;;;;;;;13.00;12.00;;;;;21.77;51.13;100818.55;110194;1264;18765;-39
2023/07/05 04:58:56;;;;;;;;;12.00;12.00;;;;;21.82;51.04;100814.73;110184;1250;20769;-39
2023/07/05 05:01:25;;;;;;;;;12.00;11.00;;;;;21.90;51.30;100818.81;110172;1250;19980;-38
2023/07/05 05:03:52;;;;;;;;;12.00;11.00;;;;;21.97;51.11;100817.47;110167;1250;20151;-39
2023/07/05 05:06:20;;;;;;;;;12.00;12.00;;;;;22.02;51.32;100815.20;110180;1264;19312;-40
2023/07/05 05:08:47;;;;;;;;;12.00;12.00;;;;;22.09;51.53;100824.41;110178;1264;18579;-39
2023/07/05 05:11:15;;;;;;;;;14.00;12.00;;;;;22.13;51.55;100826.69;110199;1264;18739;-39
2023/07/05 05:13:42;;;;;;;;;11.67;11.33;;;;;22.15;51.55;100826.42;110185;1250;20938;-39
2023/07/05 05:16:10;;;;;;;;;15.00;12.00;;;;;22.19;51.22;100829.09;110192;1250;19971;-40
2023/07/05 05:18:38;;;;;;;;;13.00;11.50;;;;;22.23;51.28;100833.70;110197;1256;20503;-39
2023/07/05 05:21:05;;;;;;;;;14.00;9.00;;;;;22.28;51.09;100831.97;110263;1264;20665;-40
2023/07/05 05:23:33;;;;;;;;;9.00;9.00;;;;;22.33;51.25;100829.37;110186;1256;20089;-40
2023/07/05 05:26:00;;;;;;;;;11.50;10.00;;;;;22.35;51.46;100825.59;110202;1250;20014;-40
2023/07/05 05:28:28;;;;;;;;;11.00;11.00;;;;;22.37;51.38;100827.01;110023;1250;20980;-40
2023/07/05 05:30:55;;;;;;;;;8.00;8.00;;;;;22.41;51.30;100826.23;110138;1256;19924;-39
2023/07/05 05:33:22;;;;;;;;;15.00;11.50;;;;;22.46;51.53;100823.81;110108;1250;22822;-39
2023/07/05 05:35:50;;;;;;;;;12.00;11.00;;;;;22.46;51.33;100828.27;110159;1249;20767;-39
2023/07/05 05:38:17;;;;;;;;;13.00;12.50;;;;;22.50;51.65;100826.36;110118;1250;23289;-40
2023/07/05 05:40:45;;;;;;;;;19.00;17.00;;;;;22.39;51.22;100825.98;110119;1265;20527;-41
2023/07/05 05:43:12;;;;;;;;;21.00;19.00;;;;;22.25;51.32;100828.11;110197;1256;20548;-41
2023/07/05 05:45:40;;;;;;;;;18.50;17.00;;;;;22.14;51.38;100828.52;110091;1249;20037;-39
2023/07/05 05:48:07;;;;;;;;;15.00;13.00;;;;;22.22;51.46;100823.42;110093;1250;20401;-38
2023/07/05 05:50:35;;;;;;;;;32.00;25.00;;;;;22.39;51.17;100830.98;110205;1250;20790;-39
2023/07/05 05:53:03;;;;;;;;;68.00;49.00;;;;;22.48;51.09;100825.15;110199;1264;19975;-38
2023/07/05 05:55:30;;;;;;;;;65.00;50.00;;;;;22.53;51.14;100822.21;110208;1264;18718;-39
2023/07/05 05:57:58;;;;;;;;;45.00;38.00;;;;;22.57;50.89;100824.04;110210;1256;22169;-39
2023/07/05 06:00:25;;;;;;;;;105.00;73.67;;;;;22.59;50.64;100826.38;110091;1250;18943;-39
2023/07/05 06:02:53;;;;;;;;;105.00;76.00;;;;;22.63;50.81;100828.18;110210;1249;20439;-39
2023/07/05 06:05:20;;;;;;;;;88.00;65.50;;;;;22.69;50.70;100826.02;110188;1264;19283;-39
2023/07/05 06:07:48;;;;;;;;;77.50;58.00;;;;;22.74;50.66;100827.14;110184;1264;21539;-40
2023/07/05 06:10:15;;;;;;;;;66.00;49.00;;;;;22.73;50.96;100823.61;110212;1264;19080;-40
2023/07/05 06:12:42;;;;;;;;;70.00;51.00;;;;;22.72;50.91;100825.52;110218;1250;20907;-37
2023/07/05 06:15:10;;;;;;;;;54.00;44.00;;;;;22.71;50.72;100825.42;110160;1256;18938;-38
2023/07/05 06:17:38;;;;;;;;;46.00;39.00;;;;;22.72;50.61;100821.02;110217;1264;18699;-38
2023/07/05 06:20:06;;;;;;;;;42.00;37.00;;;;;22.73;50.48;100816.50;110217;1264;19174;-38
2023/07/05 06:22:33;;;;;;;;;38.00;34.33;;;;;22.74;50.48;100812.44;110205;1264;22088;-37
2023/07/05 06:25:01;;;;;;;;;40.00;31.50;;;;;22.76;50.33;100813.69;110208;1265;21675;-39
2023/07/05 06:27:28;;;;;;;;;40.00;31.00;;;;;22.79;50.08;100812.21;110194;1264;20845;-39
2023/07/05 06:29:56;;;;;;;;;33.00;26.50;;;;;22.81;50.08;100811.09;110235;1250;20403;-39
2023/07/05 06:32:24;;;;;;;;;27.00;23.00;;;;;22.82;49.99;100803.00;110123;1264;18884;-39
2023/07/05 06:34:51;;;;;;;;;29.00;24.00;;;;;22.84;49.85;100801.24;110182;1264;21768;-39
2023/07/05 06:37:19;;;;;;;;;23.50;19.50;;;;;22.85;49.69;100798.16;110204;1264;20097;-40
2023/07/05 06:39:46;;;;;;;;;23.00;19.00;;;;;22.88;49.63;100799.38;110210;1265;20140;-41
2023/07/05 06:42:13;;;;;;;;;21.00;18.00;;;;;22.89;49.60;100792.33;110149;1264;19323;-39
2023/07/05 06:44:41;;;;;;;;;23.00;21.00;;;;;22.69;49.09;100795.64;110181;1250;22104;-40
2023/07/05 06:47:08;;;;;;;;;18.00;17.00;;;;;22.43;48.55;100794.86;110186;1264;18555;-40
2023/07/05 06:49:36;;;;;;;;;16.50;16.00;;;;;22.47;48.69;100789.22;110209;1249;22810;-39
2023/07/05 06:52:03;;;;;;;;;17.00;16.00;;;;;22.55;48.38;100786.44;110202;1251;18929;-40
2023/07/05 06:54:31;;;;;;;;;17.00;16.00;;;;;22.57;48.20;100785.63;110200;1264;18843;-41
2023/07/05 06:56:59;;;;;;;;;19.00;18.67;;;;;22.65;48.30;100783.69;110171;1250;21948;-40
2023/07/05 06:59:27;;;;;;;;;20.00;17.50;;;;;22.67;48.08;100780.42;110191;1249;20011;-40
2023/07/05 07:01:54;;;;;;;;;23.00;17.00;;;;;22.61;47.84;100782.54;110021;1265;224973;-40
2023/07/05 07:04:22;;;;;;;;;16.50;15.50;;;;;22.62;47.54;100784.20;110189;1264;19592;-40
2023/07/05 07:06:49;;;;;;;;;13.00;13.00;;;;;22.63;47.26;100791.89;110279;1264;18587;-39
2023/07/05 07:09:17;;;;;;;;;17.00;17.00;;;;;22.62;46.57;100786.45;110205;1264;19527;-40
2023/07/05 07:11:44;;;;;;;;;16.00;15.00;;;;;22.54;46.14;100793.66;110196;1250;23158;-40
2023/07/05 07:14:12;;;;;;;;;14.00;14.00;;;;;22.55;46.16;100792.10;110208;1264;18575;-40
2023/07/05 07:16:39;;;;;;;;;11.00;11.00;;;;;22.67;45.96;100789.88;110251;1250;20113;-39
2023/07/05 07:19:07;;;;;;;;;16.00;12.33;;;;;22.73;45.75;100787.48;110234;1264;19513;-40
2023/07/05 07:21:34;;;;;;;;;13.00;12.33;;;;;22.77;45.16;100786.41;110176;1264;18653;-41
2023/07/05 07:24:02;;;;;;;;;16.50;12.50;;;;;22.81;45.01;100785.95;110177;1265;21916;-40
2023/07/05 07:26:30;;;;;;;;;11.33;11.00;;;;;22.88;44.60;100783.48;110184;1257;19382;-39
2023/07/05 07:28:57;;;;;;;;;12.00;11.50;;;;;22.92;43.85;100782.37;110170;1264;20954;-40
2023/07/05 07:31:25;;;;;;;;;11.00;11.00;;;;;22.91;43.93;100776.38;110189;1264;19998;-41
2023/07/05 07:33:53;;;;;;;;;15.00;13.00;;;;;22.93;43.56;100776.98;110101;1250;19388;-39
2023/07/05 07:36:21;;;;;;;;;9.00;8.67;;;;;22.91;42.89;100779.41;110237;1264;18721;-40
2023/07/05 07:38:49;;;;;;;;;9.00;9.00;;;;;22.88;42.41;100779.58;110230;1256;19803;-39
2023/07/05 07:41:17;;;;;;;;;8.50;8.50;;;;;22.89;42.21;100776.60;110186;1265;22000;-39
2023/07/05 07:43:45;;;;;;;;;9.00;9.00;;;;;22.91;41.81;100774.45;110189;1264;18439;-40
2023/07/05 07:46:12;;;;;;;;;12.50;10.00;;;;;22.98;41.80;100783.73;110204;1264;20003;-39
2023/07/05 07:48:40;;;;;;;;;10.00;10.00;;;;;22.91;41.64;100782.35;110146;1264;20685;-40
2023/07/05 07:51:07;;;;;;;;;10.00;10.00;;;;;22.97;41.77;100782.86;110226;1264;18892;-40
2023/07/05 07:53:35;;;;;;;;;13.67;12.00;;;;;22.99;41.70;100783.41;110210;1264;20070;-40
2023/07/05 07:56:02;;;;;;;;;12.00;12.00;;;;;23.02;42.11;100777.02;110202;1264;19666;-40
2023/07/05 07:58:31;;;;;;;;;16.00;13.00;;;;;23.09;42.61;100775.59;110125;1264;18568;-40
2023/07/05 08:00:58;;;;;;;;;14.00;14.00;;;;;23.14;43.04;100774.56;110107;1264;20116;-40
2023/07/05 08:03:26;;;;;;;;;19.00;16.00;;;;;23.08;43.21;100772.43;110248;1264;21996;-40
2023/07/05 08:05:53;;;;;;;;;17.00;16.00;;;;;23.05;43.29;100772.42;110141;1249;22401;-40
2023/07/05 08:08:21;;;;;;;;;16.00;15.00;;;;;23.04;43.58;100764.77;110137;1256;20107;-40
2023/07/05 08:10:49;;;;;;;;;18.00;15.00;;;;;23.07;43.51;100758.49;110156;1265;19351;-40
2023/07/05 08:13:16;;;;;;;;;19.00;16.00;;;;;23.13;43.51;100757.77;110214;1264;18669;-40
2023/07/05 08:15:44;;;;;;;;;17.00;15.00;;;;;23.14;43.71;100755.63;110237;1264;21700;-40
2023/07/05 08:18:11;;;;;;;;;15.00;15.00;;;;;23.21;43.86;100756.90;110207;1264;19337;-39
2023/07/05 08:20:38;;;;;;;;;16.00;15.00;;;;;23.24;43.61;100751.58;110176;1256;23494;-40
2023/07/05 08:23:06;;;;;;;;;13.00;12.50;;;;;23.28;43.76;100750.03;110181;1256;20078;-40
2023/07/05 08:25:34;;;;;;;;;17.00;14.00;;;;;23.35;43.37;100749.15;110206;1265;20658;-39
2023/07/05 08:28:01;;;;;;;;;12.00;12.00;;;;;23.33;42.84;100740.80;110237;1264;18963;-40
2023/07/05 08:30:29;;;;;;;;;14.00;13.00;;;;;23.33;42.73;100742.77;110202;1256;20513;-40
2023/07/05 08:32:57;;;;;;;;;12.00;11.33;;;;;23.33;42.81;100738.77;110232;1264;19374;-39
2023/07/05 08:35:24;;;;;;;;;12.50;12.50;;;;;23.37;42.74;100737.73;110188;1250;21432;-39
2023/07/05 08:37:51;;;;;;;;;12.00;12.00;;;;;23.41;42.66;100740.36;110095;1250;20421;-39
2023/07/05 08:40:19;;;;;;;;;12.00;10.00;;;;;23.46;42.57;100734.44;110204;1250;22638;-40
2023/07/05 08:42:46;;;;;;;;;12.67;12.67;;;;;23.48;42.53;100729.08;110191;1264;18714;-38
2023/07/05 08:45:14;;;;;;;;;13.00;12.00;;;;;23.49;42.19;100732.60;110284;1249;20125;-38
2023/07/05 08:47:41;;;;;;;;;14.00;13.00;;;;;23.48;41.97;100719.39;110196;1264;19206;-38
2023/07/05 08:50:08;;;;;;;;;14.00;12.00;;;;;23.53;41.13;100725.55;110216;1256;23278;-39
2023/07/05 08:52:36;;;;;;;;;13.50;12.00;;;;;23.52;41.28;100718.96;110163;1256;20003;-39
2023/07/05 08:55:03;;;;;;;;;13.00;12.00;;;;;23.53;41.26;100714.02;110180;1249;22235;-40
2023/07/05 08:57:31;;;;;;;;;14.00;13.00;;;;;23.60;41.43;100709.09;110182;1264;18758;-39
2023/07/05 08:59:59;;;;;;;;;16.00;14.00;;;;;23.63;41.29;100712.40;110222;1256;20160;-39
2023/07/05 09:02:26;;;;;;;;;17.00;14.00;;;;;23.62;40.75;100711.55;110247;1264;19310;-38
2023/07/05 09:04:57;;;;;;;;;17.00;12.00;;;;;23.63;40.77;100710.05;110237;1256;19620;-38
2023/07/05 09:07:25;;;;;;;;;13.00;12.00;;;;;23.62;40.89;100708.73;110153;1250;18665;-39
2023/07/05 09:09:52;;;;;;;;;13.50;13.50;;;;;23.61;41.12;100706.06;110151;1264;19526;-39
2023/07/05 09:12:20;;;;;;;;;16.50;16.50;;;;;23.66;41.36;100702.27;110183;1250;19993;-40
2023/07/05 09:14:47;;;;;;;;;14.00;13.00;;;;;23.73;41.42;100693.23;110179;1256;18753;-40
2023/07/05 09:17:14;;;;;;;;;13.50;12.50;;;;;23.77;41.33;100698.01;110144;1256;20400;-39
2023/07/05 09:19:42;;;;;;;;;14.00;14.00;;;;;23.75;41.46;100691.59;110116;1264;22337;-39
2023/07/05 09:22:10;;;;;;;;;17.00;14.00;;;;;23.75;41.53;100688.85;110121;1264;20209;-39
2023/07/05 09:24:38;;;;;;;;;20.00;16.00;;;;;23.79;41.40;100687.34;110177;1250;19312;-39
2023/07/05 09:27:05;;;;;;;;;15.00;14.00;;;;;23.81;41.31;100690.55;110246;1250;22770;-39
2023/07/05 09:29:32;;;;;;;;;17.00;14.00;;;;;23.78;41.32;100683.66;110223;1264;18687;-38
2023/07/05 09:32:00;;;;;;;;;16.00;16.00;;;;;23.77;41.23;100677.66;110201;1250;22075;-38
2023/07/05 09:34:28;;;;;;;;;21.00;18.00;;;;;23.83;40.85;100674.18;110162;1264;18658;-39
2023/07/05 09:36:55;;;;;;;;;19.00;16.50;;;;;23.86;41.00;100670.39;110197;1250;18693;-40
2023/07/05 09:39:22;;;;;;;;;16.00;16.00;;;;;23.83;41.16;100667.83;110177;1248;23243;-39
2023/07/05 09:41:50;;;;;;;;;21.00;15.00;;;;;23.88;41.12;100660.87;110190;1256;20259;-40
2023/07/05 09:44:17;;;;;;;;;20.00;16.50;;;;;23.86;40.96;100660.79;110036;1249;18700;-38
2023/07/05 09:46:47;;;;;;;;;18.00;16.50;;;;;23.90;41.27;100663.08;110137;1265;22280;-39
2023/07/05 09:49:14;;;;;;;;;20.50;16.00;;;;;23.85;41.14;100653.40;110175;1264;18603;-38
2023/07/05 09:51:44;;;;;;;;;17.67;14.67;;;;;23.89;41.17;100650.30;110165;1264;18842;-39
2023/07/05 09:54:11;;;;;;;;;21.00;20.00;;;;;23.95;41.29;100653.46;110242;1264;20649;-39
2023/07/05 09:56:39;;;;;;;;;22.00;20.00;;;;;24.07;41.21;100646.48;110221;1264;19997;-39
2023/07/05 09:59:07;;;;;;;;;19.50;18.50;;;;;24.10;40.97;100638.23;110169;1264;18820;-40
2023/07/05 10:01:40;;;;;;;;;17.00;17.00;;;;;24.20;40.90;100642.17;110264;1264;20511;-40
2023/07/05 10:04:08;;;;;;;;;18.00;18.00;;;;;24.14;41.12;100643.14;110218;1264;20229;-40
2023/07/05 10:06:36;;;;;;;;;22.00;19.50;;;;;24.10;41.32;100636.71;110225;1257;19025;-40
2023/07/05 10:09:05;;;;;;;;;18.00;18.00;;;;;24.11;41.43;100639.97;110235;1264;19521;-40
2023/07/05 10:11:34;;;;;;;;;22.50;18.00;;;;;24.15;41.39;100626.40;110237;1249;21416;-40
2023/07/05 10:14:02;;;;;;;;;21.00;18.00;;;;;24.15;41.55;100623.86;110194;1264;20033;-40
2023/07/05 10:16:30;;;;;;;;;21.00;21.00;;;;;24.16;41.47;100624.29;110210;1256;20724;-40
2023/07/05 10:19:00;;;;;;;;;24.50;20.00;;;;;24.15;41.41;100614.75;110187;1264;20155;-40
2023/07/05 10:21:29;;;;;;;;;23.00;19.50;;;;;24.24;40.83;100615.05;110242;1250;22188;-40
2023/07/05 10:23:57;;;;;;;;;21.50;18.00;;;;;24.21;40.73;100607.20;110239;1264;21108;-40
2023/07/05 10:26:25;;;;;;;;;25.00;22.00;;;;;24.19;40.87;100604.55;110246;1257;18674;-39
2023/07/05 10:28:53;;;;;;;;;25.50;20.50;;;;;24.18;40.87;100603.73;110231;1256;21838;-39
2023/07/05 10:31:20;;;;;;;;;27.00;23.00;;;;;24.30;40.66;100589.42;110248;1264;20691;-39
2023/07/05 10:33:48;;;;;;;;;21.00;19.00;;;;;24.44;40.63;100590.78;110192;1264;18914;-39
2023/07/05 10:36:15;;;;;;;;;26.00;21.00;;;;;24.46;40.44;100590.41;110196;1264;18845;-39
2023/07/05 10:38:44;;;;;;;;;29.00;25.00;;;;;24.37;40.58;100584.09;110144;1264;19363;-40
2023/07/05 10:41:12;;;;;;;;;22.50;21.00;;;;;24.49;40.28;100584.69;110194;1264;19956;-40
2023/07/05 10:43:39;;;;;;;;;25.00;22.00;;;;;24.45;40.33;100587.75;110263;1264;18889;-40
2023/07/05 10:46:07;;;;;;;;;30.50;23.00;;;;;24.44;40.61;100580.54;110109;1264;20507;-40
2023/07/05 10:48:34;;;;;;;;;28.00;25.00;;;;;24.44;40.55;100579.99;110226;1264;19079;-40
2023/07/05 10:51:02;;;;;;;;;24.00;21.50;;;;;24.46;40.38;100576.79;110226;1264;20082;-40
2023/07/05 10:53:30;;;;;;;;;25.50;24.00;;;;;24.48;40.26;100580.94;110221;1264;20301;-41
2023/07/05 10:56:00;;;;;;;;;23.00;21.50;;;;;24.65;39.69;100561.71;110234;1257;18621;-39
2023/07/05 10:58:27;;;;;;;;;26.00;23.00;;;;;24.86;39.06;100562.52;110239;1264;18730;-39
2023/07/05 11:00:55;;;;;;;;;24.00;22.00;;;;;24.93;39.04;100562.77;110227;1264;19487;-40
2023/07/05 11:03:23;;;;;;;;;27.00;25.00;;;;;25.18;38.23;100561.11;110212;1248;22278;-40